sensor_id;sensor_type;location;lat;lon;timestamp;temperature;humidity
19680;DHT22;9989;48.962;9.182;2023-03-14T00:01:29;11.30;99.90
19680;DHT22;9989;48.962;9.182;2023-03-14T00:03:55;11.30;99.90
19680;DHT22;9989;48.962;9.182;2023-03-14T00:06:20;11.30;99.90
19680;DHT22;9989;48.962;9.182;2023-03-14T00:08:47;11.30;99.90
19680;DHT22;9989;48.962;9.182;2023-03-14T00:11:15;11.40;99.90
19680;DHT22;9989;48.962;9.182;2023-03-14T00:13:47;11.40;99.90
19680;DHT22;9989;48.962;9.182;2023-03-14T00:16:13;11.40;99.90
19680;DHT22;9989;48.962;9.182;2023-03-14T00:18:39;11.30;99.90
19680;DHT22;9989;48.962;9.182;2023-03-14T00:21:07;11.30;99.90
19680;DHT22;9989;48.962;9.182;2023-03-14T00:23:35;11.30;99.90
19680;DHT22;9989;48.962;9.182;2023-03-14T00:26:06;11.30;99.90
19680;DHT22;9989;48.962;9.182;2023-03-14T00:28:32;11.30;99.90
19680;DHT22;9989;48.962;9.182;2023-03-14T00:30:58;11.30;99.90
19680;DHT22;9989;48.962;9.182;2023-03-14T00:33:24;11.30;99.90
19680;DHT22;9989;48.962;9.182;2023-03-14T00:35:58;11.30;99.90
19680;DHT22;9989;48.962;9.182;2023-03-14T00:38:25;11.20;99.90
19680;DHT22;9989;48.962;9.182;2023-03-14T00:40:54;11.20;99.90
19680;DHT22;9989;48.962;9.182;2023-03-14T00:43:20;11.20;99.90
19680;DHT22;9989;48.962;9.182;2023-03-14T00:45:50;11.20;99.90
19680;DHT22;9989;48.962;9.182;2023-03-14T00:48:17;11.20;99.90
19680;DHT22;9989;48.962;9.182;2023-03-14T00:50:43;11.10;99.90
19680;DHT22;9989;48.962;9.182;2023-03-14T00:53:09;11.10;99.90
19680;DHT22;9989;48.962;9.182;2023-03-14T00:55:39;11.00;99.90
19680;DHT22;9989;48.962;9.182;2023-03-14T00:58:05;11.10;99.90
19680;DHT22;9989;48.962;9.182;2023-03-14T01:00:31;11.10;99.90
19680;DHT22;9989;48.962;9.182;2023-03-14T01:02:57;11.10;99.90
19680;DHT22;9989;48.962;9.182;2023-03-14T01:05:23;11.10;99.90
19680;DHT22;9989;48.962;9.182;2023-03-14T01:08:16;11.10;99.90
19680;DHT22;9989;48.962;9.182;2023-03-14T01:10:42;11.00;99.90
19680;DHT22;9989;48.962;9.182;2023-03-14T01:13:08;11.10;99.90
19680;DHT22;9989;48.962;9.182;2023-03-14T01:15:34;11.10;99.90
19680;DHT22;9989;48.962;9.182;2023-03-14T01:18:00;11.10;99.90
19680;DHT22;9989;48.962;9.182;2023-03-14T01:20:25;11.20;99.90
19680;DHT22;9989;48.962;9.182;2023-03-14T01:22:51;11.20;99.90
19680;DHT22;9989;48.962;9.182;2023-03-14T01:25:17;11.30;99.90
19680;DHT22;9989;48.962;9.182;2023-03-14T01:27:43;11.30;99.90
19680;DHT22;9989;48.962;9.182;2023-03-14T01:30:10;11.30;99.90
19680;DHT22;9989;48.962;9.182;2023-03-14T01:32:36;11.30;99.90
19680;DHT22;9989;48.962;9.182;2023-03-14T01:35:02;11.30;99.90
19680;DHT22;9989;48.962;9.182;2023-03-14T01:37:28;11.20;99.90
19680;DHT22;9989;48.962;9.182;2023-03-14T01:39:53;11.30;99.90
19680;DHT22;9989;48.962;9.182;2023-03-14T01:42:19;11.30;99.90
19680;DHT22;9989;48.962;9.182;2023-03-14T01:44:52;11.30;99.90
19680;DHT22;9989;48.962;9.182;2023-03-14T01:47:18;11.30;99.90
19680;DHT22;9989;48.962;9.182;2023-03-14T01:50:08;11.30;99.90
19680;DHT22;9989;48.962;9.182;2023-03-14T01:52:36;11.30;99.90
19680;DHT22;9989;48.962;9.182;2023-03-14T01:55:06;11.30;99.90
19680;DHT22;9989;48.962;9.182;2023-03-14T01:57:39;11.30;99.90
19680;DHT22;9989;48.962;9.182;2023-03-14T02:00:14;11.30;99.90
19680;DHT22;9989;48.962;9.182;2023-03-14T02:02:47;11.30;99.90
19680;DHT22;9989;48.962;9.182;2023-03-14T02:05:17;11.30;99.90
19680;DHT22;9989;48.962;9.182;2023-03-14T02:07:50;11.30;99.90
19680;DHT22;9989;48.962;9.182;2023-03-14T02:10:18;11.30;99.90
19680;DHT22;9989;48.962;9.182;2023-03-14T02:12:48;11.30;99.90
19680;DHT22;9989;48.962;9.182;2023-03-14T02:15:15;11.30;99.90
19680;DHT22;9989;48.962;9.182;2023-03-14T02:17:42;11.30;99.90
19680;DHT22;9989;48.962;9.182;2023-03-14T02:20:22;11.30;99.90
19680;DHT22;9989;48.962;9.182;2023-03-14T02:22:51;11.30;99.90
19680;DHT22;9989;48.962;9.182;2023-03-14T02:25:31;11.30;99.90
19680;DHT22;9989;48.962;9.182;2023-03-14T02:28:01;11.30;99.90
19680;DHT22;9989;48.962;9.182;2023-03-14T02:30:29;11.30;99.90
19680;DHT22;9989;48.962;9.182;2023-03-14T02:32:59;11.30;99.90
19680;DHT22;9989;48.962;9.182;2023-03-14T02:35:34;11.40;99.90
19680;DHT22;9989;48.962;9.182;2023-03-14T02:40:46;11.40;99.90
19680;DHT22;9989;48.962;9.182;2023-03-14T02:43:11;11.50;99.90
19680;DHT22;9989;48.962;9.182;2023-03-14T02:45:40;11.50;99.90
19680;DHT22;9989;48.962;9.182;2023-03-14T02:48:11;11.50;99.90
19680;DHT22;9989;48.962;9.182;2023-03-14T02:50:37;11.50;99.90
19680;DHT22;9989;48.962;9.182;2023-03-14T02:53:03;11.50;99.90
19680;DHT22;9989;48.962;9.182;2023-03-14T02:55:29;11.50;99.90
19680;DHT22;9989;48.962;9.182;2023-03-14T02:57:54;11.40;99.90
19680;DHT22;9989;48.962;9.182;2023-03-14T03:00:20;11.40;99.90
19680;DHT22;9989;48.962;9.182;2023-03-14T03:02:46;11.40;99.90
19680;DHT22;9989;48.962;9.182;2023-03-14T03:05:12;11.40;99.90
19680;DHT22;9989;48.962;9.182;2023-03-14T03:07:37;11.40;99.90
19680;DHT22;9989;48.962;9.182;2023-03-14T03:10:04;11.30;99.90
19680;DHT22;9989;48.962;9.182;2023-03-14T03:12:30;11.30;99.90
19680;DHT22;9989;48.962;9.182;2023-03-14T03:14:55;11.30;99.90
19680;DHT22;9989;48.962;9.182;2023-03-14T03:17:21;11.30;99.90
19680;DHT22;9989;48.962;9.182;2023-03-14T03:19:46;11.30;99.90
19680;DHT22;9989;48.962;9.182;2023-03-14T03:22:12;11.30;99.90
19680;DHT22;9989;48.962;9.182;2023-03-14T03:24:38;11.30;99.90
19680;DHT22;9989;48.962;9.182;2023-03-14T03:27:03;11.30;99.90
19680;DHT22;9989;48.962;9.182;2023-03-14T03:29:29;11.20;99.90
19680;DHT22;9989;48.962;9.182;2023-03-14T03:31:55;11.20;99.90
19680;DHT22;9989;48.962;9.182;2023-03-14T03:34:21;11.20;99.90
19680;DHT22;9989;48.962;9.182;2023-03-14T03:36:46;11.20;99.90
19680;DHT22;9989;48.962;9.182;2023-03-14T03:39:12;11.20;99.90
19680;DHT22;9989;48.962;9.182;2023-03-14T03:41:37;11.20;99.90
19680;DHT22;9989;48.962;9.182;2023-03-14T03:44:03;11.20;99.90
19680;DHT22;9989;48.962;9.182;2023-03-14T03:46:29;11.20;99.90
19680;DHT22;9989;48.962;9.182;2023-03-14T03:48:58;11.20;99.90
19680;DHT22;9989;48.962;9.182;2023-03-14T03:51:24;11.10;99.90
19680;DHT22;9989;48.962;9.182;2023-03-14T03:53:50;11.20;99.90
19680;DHT22;9989;48.962;9.182;2023-03-14T03:56:16;11.20;99.90
19680;DHT22;9989;48.962;9.182;2023-03-14T03:58:41;11.20;99.90
19680;DHT22;9989;48.962;9.182;2023-03-14T04:01:08;11.20;99.90
19680;DHT22;9989;48.962;9.182;2023-03-14T04:03:34;11.10;99.90
19680;DHT22;9989;48.962;9.182;2023-03-14T04:06:08;11.10;99.90
19680;DHT22;9989;48.962;9.182;2023-03-14T04:08:37;11.10;99.90
19680;DHT22;9989;48.962;9.182;2023-03-14T04:11:03;11.10;99.90
19680;DHT22;9989;48.962;9.182;2023-03-14T04:13:29;11.10;99.90
19680;DHT22;9989;48.962;9.182;2023-03-14T04:15:55;11.10;99.90
19680;DHT22;9989;48.962;9.182;2023-03-14T04:18:21;11.10;99.90
19680;DHT22;9989;48.962;9.182;2023-03-14T04:20:54;11.10;99.90
19680;DHT22;9989;48.962;9.182;2023-03-14T04:23:20;11.10;99.90
19680;DHT22;9989;48.962;9.182;2023-03-14T04:25:45;11.10;99.90
19680;DHT22;9989;48.962;9.182;2023-03-14T04:28:11;11.00;99.90
19680;DHT22;9989;48.962;9.182;2023-03-14T04:30:37;11.00;99.90
19680;DHT22;9989;48.962;9.182;2023-03-14T04:33:02;11.00;99.90
19680;DHT22;9989;48.962;9.182;2023-03-14T04:35:30;11.00;99.90
19680;DHT22;9989;48.962;9.182;2023-03-14T04:37:56;10.90;99.90
19680;DHT22;9989;48.962;9.182;2023-03-14T04:40:22;10.90;99.90
19680;DHT22;9989;48.962;9.182;2023-03-14T04:42:47;10.90;99.90
19680;DHT22;9989;48.962;9.182;2023-03-14T04:45:13;10.90;99.90
19680;DHT22;9989;48.962;9.182;2023-03-14T04:47:39;10.90;99.90
19680;DHT22;9989;48.962;9.182;2023-03-14T04:50:05;10.90;99.90
19680;DHT22;9989;48.962;9.182;2023-03-14T04:52:30;10.90;99.90
19680;DHT22;9989;48.962;9.182;2023-03-14T04:54:56;10.80;99.90
19680;DHT22;9989;48.962;9.182;2023-03-14T04:57:21;10.80;99.90
19680;DHT22;9989;48.962;9.182;2023-03-14T04:59:47;10.80;99.90
19680;DHT22;9989;48.962;9.182;2023-03-14T05:02:13;10.80;99.90
19680;DHT22;9989;48.962;9.182;2023-03-14T05:04:38;10.80;99.90
19680;DHT22;9989;48.962;9.182;2023-03-14T05:07:04;10.80;99.90
19680;DHT22;9989;48.962;9.182;2023-03-14T05:10:00;10.80;99.90
19680;DHT22;9989;48.962;9.182;2023-03-14T05:12:26;10.80;99.90
19680;DHT22;9989;48.962;9.182;2023-03-14T05:14:51;10.80;99.90
19680;DHT22;9989;48.962;9.182;2023-03-14T05:17:17;10.70;99.90
19680;DHT22;9989;48.962;9.182;2023-03-14T05:19:44;10.70;99.90
19680;DHT22;9989;48.962;9.182;2023-03-14T05:22:10;10.80;99.90
19680;DHT22;9989;48.962;9.182;2023-03-14T05:24:36;10.70;99.90
19680;DHT22;9989;48.962;9.182;2023-03-14T05:27:02;10.70;99.90
19680;DHT22;9989;48.962;9.182;2023-03-14T05:29:27;10.60;99.90
19680;DHT22;9989;48.962;9.182;2023-03-14T05:31:53;10.60;99.90
19680;DHT22;9989;48.962;9.182;2023-03-14T05:34:19;10.60;99.90
19680;DHT22;9989;48.962;9.182;2023-03-14T05:36:44;10.70;99.90
19680;DHT22;9989;48.962;9.182;2023-03-14T05:39:10;10.70;99.90
19680;DHT22;9989;48.962;9.182;2023-03-14T05:41:35;10.70;99.90
19680;DHT22;9989;48.962;9.182;2023-03-14T05:44:01;10.60;99.90
19680;DHT22;9989;48.962;9.182;2023-03-14T05:46:27;10.60;99.90
19680;DHT22;9989;48.962;9.182;2023-03-14T05:48:52;10.60;99.90
19680;DHT22;9989;48.962;9.182;2023-03-14T05:51:18;10.60;99.90
19680;DHT22;9989;48.962;9.182;2023-03-14T05:53:43;10.60;99.90
19680;DHT22;9989;48.962;9.182;2023-03-14T05:56:09;10.60;99.90
19680;DHT22;9989;48.962;9.182;2023-03-14T05:58:34;10.70;99.90
19680;DHT22;9989;48.962;9.182;2023-03-14T06:01:04;10.70;99.90
19680;DHT22;9989;48.962;9.182;2023-03-14T06:03:31;10.70;99.90
19680;DHT22;9989;48.962;9.182;2023-03-14T06:05:56;10.70;99.90
19680;DHT22;9989;48.962;9.182;2023-03-14T06:08:22;10.70;99.90
19680;DHT22;9989;48.962;9.182;2023-03-14T06:10:48;10.70;99.90
19680;DHT22;9989;48.962;9.182;2023-03-14T06:13:13;10.70;99.90
19680;DHT22;9989;48.962;9.182;2023-03-14T06:15:40;10.70;99.90
19680;DHT22;9989;48.962;9.182;2023-03-14T06:18:06;10.70;99.90
19680;DHT22;9989;48.962;9.182;2023-03-14T06:20:32;10.80;99.90
19680;DHT22;9989;48.962;9.182;2023-03-14T06:22:58;10.80;99.90
19680;DHT22;9989;48.962;9.182;2023-03-14T06:25:24;10.80;99.90
19680;DHT22;9989;48.962;9.182;2023-03-14T06:27:49;10.80;99.90
19680;DHT22;9989;48.962;9.182;2023-03-14T06:30:15;10.80;99.90
19680;DHT22;9989;48.962;9.182;2023-03-14T06:32:41;10.80;99.90
19680;DHT22;9989;48.962;9.182;2023-03-14T06:35:07;10.80;99.90
19680;DHT22;9989;48.962;9.182;2023-03-14T06:37:33;10.90;99.90
19680;DHT22;9989;48.962;9.182;2023-03-14T06:39:59;10.90;99.90
19680;DHT22;9989;48.962;9.182;2023-03-14T06:42:25;11.00;99.90
19680;DHT22;9989;48.962;9.182;2023-03-14T06:44:50;11.00;99.90
19680;DHT22;9989;48.962;9.182;2023-03-14T06:47:16;11.10;99.90
19680;DHT22;9989;48.962;9.182;2023-03-14T06:49:41;11.10;99.90
19680;DHT22;9989;48.962;9.182;2023-03-14T06:52:07;11.10;99.90
19680;DHT22;9989;48.962;9.182;2023-03-14T06:54:33;11.10;99.90
19680;DHT22;9989;48.962;9.182;2023-03-14T06:56:58;11.10;99.90
19680;DHT22;9989;48.962;9.182;2023-03-14T06:59:24;11.10;99.90
19680;DHT22;9989;48.962;9.182;2023-03-14T07:01:49;11.10;99.90
19680;DHT22;9989;48.962;9.182;2023-03-14T07:04:16;11.20;99.90
19680;DHT22;9989;48.962;9.182;2023-03-14T07:06:42;11.30;99.90
19680;DHT22;9989;48.962;9.182;2023-03-14T07:09:11;11.40;99.90
19680;DHT22;9989;48.962;9.182;2023-03-14T07:11:37;11.50;99.90
19680;DHT22;9989;48.962;9.182;2023-03-14T07:14:03;11.70;99.90
19680;DHT22;9989;48.962;9.182;2023-03-14T07:16:28;11.90;99.90
19680;DHT22;9989;48.962;9.182;2023-03-14T07:18:57;12.00;99.90
19680;DHT22;9989;48.962;9.182;2023-03-14T07:21:23;12.10;99.90
19680;DHT22;9989;48.962;9.182;2023-03-14T07:23:48;12.10;99.90
19680;DHT22;9989;48.962;9.182;2023-03-14T07:26:14;12.20;99.90
19680;DHT22;9989;48.962;9.182;2023-03-14T07:28:39;12.20;99.90
19680;DHT22;9989;48.962;9.182;2023-03-14T07:31:05;12.20;99.90
19680;DHT22;9989;48.962;9.182;2023-03-14T07:33:31;12.20;99.90
19680;DHT22;9989;48.962;9.182;2023-03-14T07:35:57;12.30;99.90
19680;DHT22;9989;48.962;9.182;2023-03-14T07:38:23;12.30;99.90
19680;DHT22;9989;48.962;9.182;2023-03-14T07:40:48;12.20;99.90
19680;DHT22;9989;48.962;9.182;2023-03-14T07:43:14;12.10;99.90
19680;DHT22;9989;48.962;9.182;2023-03-14T07:45:39;12.20;99.90
19680;DHT22;9989;48.962;9.182;2023-03-14T07:48:05;12.30;99.90
19680;DHT22;9989;48.962;9.182;2023-03-14T07:50:30;12.40;99.90
19680;DHT22;9989;48.962;9.182;2023-03-14T07:52:56;12.50;99.90
19680;DHT22;9989;48.962;9.182;2023-03-14T07:55:24;12.60;99.90
19680;DHT22;9989;48.962;9.182;2023-03-14T07:57:50;12.80;99.90
19680;DHT22;9989;48.962;9.182;2023-03-14T08:00:16;12.90;99.90
19680;DHT22;9989;48.962;9.182;2023-03-14T08:02:42;13.00;99.90
19680;DHT22;9989;48.962;9.182;2023-03-14T08:05:08;13.10;99.90
19680;DHT22;9989;48.962;9.182;2023-03-14T08:07:33;13.30;99.90
19680;DHT22;9989;48.962;9.182;2023-03-14T08:09:59;13.50;99.90
19680;DHT22;9989;48.962;9.182;2023-03-14T08:12:24;13.70;99.90
19680;DHT22;9989;48.962;9.182;2023-03-14T08:14:50;13.80;99.90
19680;DHT22;9989;48.962;9.182;2023-03-14T08:17:15;14.00;99.90
19680;DHT22;9989;48.962;9.182;2023-03-14T08:19:42;14.20;99.90
19680;DHT22;9989;48.962;9.182;2023-03-14T08:22:07;14.40;99.90
19680;DHT22;9989;48.962;9.182;2023-03-14T08:24:33;14.60;99.90
19680;DHT22;9989;48.962;9.182;2023-03-14T08:26:59;14.60;99.90
19680;DHT22;9989;48.962;9.182;2023-03-14T08:29:24;14.50;99.90
19680;DHT22;9989;48.962;9.182;2023-03-14T08:31:50;14.40;99.90
19680;DHT22;9989;48.962;9.182;2023-03-14T08:34:16;14.50;99.90
19680;DHT22;9989;48.962;9.182;2023-03-14T08:36:42;14.60;99.90
19680;DHT22;9989;48.962;9.182;2023-03-14T08:39:08;14.60;99.90
19680;DHT22;9989;48.962;9.182;2023-03-14T08:41:34;14.70;99.90
19680;DHT22;9989;48.962;9.182;2023-03-14T08:44:06;14.90;99.90
19680;DHT22;9989;48.962;9.182;2023-03-14T08:46:32;15.10;99.90
19680;DHT22;9989;48.962;9.182;2023-03-14T08:48:57;15.30;99.90
19680;DHT22;9989;48.962;9.182;2023-03-14T08:51:23;15.50;99.90
19680;DHT22;9989;48.962;9.182;2023-03-14T08:53:48;15.40;99.90
19680;DHT22;9989;48.962;9.182;2023-03-14T08:56:14;15.20;99.90
19680;DHT22;9989;48.962;9.182;2023-03-14T08:58:39;14.90;99.90
19680;DHT22;9989;48.962;9.182;2023-03-14T09:01:07;14.70;99.90
19680;DHT22;9989;48.962;9.182;2023-03-14T09:03:34;14.50;99.90
19680;DHT22;9989;48.962;9.182;2023-03-14T09:06:04;14.30;99.90
19680;DHT22;9989;48.962;9.182;2023-03-14T09:08:30;14.30;99.90
19680;DHT22;9989;48.962;9.182;2023-03-14T09:10:55;14.10;99.90
19680;DHT22;9989;48.962;9.182;2023-03-14T09:13:21;14.00;99.90
19680;DHT22;9989;48.962;9.182;2023-03-14T09:15:51;13.90;99.90
19680;DHT22;9989;48.962;9.182;2023-03-14T09:18:17;13.80;99.90
19680;DHT22;9989;48.962;9.182;2023-03-14T09:20:42;13.80;99.90
19680;DHT22;9989;48.962;9.182;2023-03-14T09:23:08;13.80;99.90
19680;DHT22;9989;48.962;9.182;2023-03-14T09:25:33;13.80;99.90
19680;DHT22;9989;48.962;9.182;2023-03-14T09:27:59;13.80;99.90
19680;DHT22;9989;48.962;9.182;2023-03-14T09:30:24;13.60;99.90
19680;DHT22;9989;48.962;9.182;2023-03-14T09:32:50;13.50;99.90
19680;DHT22;9989;48.962;9.182;2023-03-14T09:35:15;13.30;99.90
19680;DHT22;9989;48.962;9.182;2023-03-14T09:37:41;13.20;99.90
19680;DHT22;9989;48.962;9.182;2023-03-14T09:40:11;13.20;99.90
19680;DHT22;9989;48.962;9.182;2023-03-14T09:42:37;12.90;99.90
19680;DHT22;9989;48.962;9.182;2023-03-14T09:45:13;12.80;99.90
19680;DHT22;9989;48.962;9.182;2023-03-14T09:47:40;12.70;99.90
19680;DHT22;9989;48.962;9.182;2023-03-14T09:50:13;12.70;99.90
19680;DHT22;9989;48.962;9.182;2023-03-14T09:52:40;12.70;99.90
19680;DHT22;9989;48.962;9.182;2023-03-14T09:55:15;12.80;99.90
19680;DHT22;9989;48.962;9.182;2023-03-14T09:57:41;12.80;99.90
19680;DHT22;9989;48.962;9.182;2023-03-14T10:00:24;12.90;99.90
19680;DHT22;9989;48.962;9.182;2023-03-14T10:02:55;12.90;99.90
19680;DHT22;9989;48.962;9.182;2023-03-14T10:05:23;13.00;99.90
19680;DHT22;9989;48.962;9.182;2023-03-14T10:07:50;13.10;99.90
19680;DHT22;9989;48.962;9.182;2023-03-14T10:10:23;13.30;99.90
19680;DHT22;9989;48.962;9.182;2023-03-14T10:13:05;13.70;99.90
19680;DHT22;9989;48.962;9.182;2023-03-14T10:15:34;14.50;99.90
19680;DHT22;9989;48.962;9.182;2023-03-14T10:18:01;15.30;99.90
19680;DHT22;9989;48.962;9.182;2023-03-14T10:20:45;16.30;99.90
19680;DHT22;9989;48.962;9.182;2023-03-14T10:25:58;17.90;99.90
19680;DHT22;9989;48.962;9.182;2023-03-14T10:28:53;18.20;99.90
19680;DHT22;9989;48.962;9.182;2023-03-14T10:31:24;18.80;98.40
19680;DHT22;9989;48.962;9.182;2023-03-14T10:34:04;18.70;97.70
19680;DHT22;9989;48.962;9.182;2023-03-14T10:36:32;18.50;98.10
19680;DHT22;9989;48.962;9.182;2023-03-14T10:41:51;17.80;96.50
19680;DHT22;9989;48.962;9.182;2023-03-14T10:44:21;17.00;98.10
19680;DHT22;9989;48.962;9.182;2023-03-14T10:46:56;16.50;98.90
19680;DHT22;9989;48.962;9.182;2023-03-14T10:49:28;16.20;99.90
19680;DHT22;9989;48.962;9.182;2023-03-14T10:51:54;15.70;99.90
19680;DHT22;9989;48.962;9.182;2023-03-14T10:54:22;15.10;99.90
19680;DHT22;9989;48.962;9.182;2023-03-14T10:57:04;14.60;99.90
19680;DHT22;9989;48.962;9.182;2023-03-14T10:59:37;14.40;99.90
19680;DHT22;9989;48.962;9.182;2023-03-14T11:07:32;14.00;99.90
19680;DHT22;9989;48.962;9.182;2023-03-14T11:13:08;13.50;99.90
19680;DHT22;9989;48.962;9.182;2023-03-14T11:21:12;12.90;99.90
19680;DHT22;9989;48.962;9.182;2023-03-14T11:24:00;12.90;99.90
19680;DHT22;9989;48.962;9.182;2023-03-14T11:32:07;12.80;99.90
19680;DHT22;9989;48.962;9.182;2023-03-14T11:34:53;12.80;99.90
19680;DHT22;9989;48.962;9.182;2023-03-14T11:37:36;12.70;99.90
19680;DHT22;9989;48.962;9.182;2023-03-14T11:40:21;12.70;99.90
19680;DHT22;9989;48.962;9.182;2023-03-14T11:43:05;12.50;99.90
19680;DHT22;9989;48.962;9.182;2023-03-14T11:45:39;12.30;99.90
19680;DHT22;9989;48.962;9.182;2023-03-14T11:48:28;12.20;99.90
19680;DHT22;9989;48.962;9.182;2023-03-14T11:50:57;12.30;99.90
19680;DHT22;9989;48.962;9.182;2023-03-14T11:53:48;12.20;99.90
19680;DHT22;9989;48.962;9.182;2023-03-14T11:56:33;12.20;99.90
19680;DHT22;9989;48.962;9.182;2023-03-14T11:59:16;12.30;99.90
19680;DHT22;9989;48.962;9.182;2023-03-14T12:04:27;12.20;99.90
19680;DHT22;9989;48.962;9.182;2023-03-14T12:06:56;12.10;99.90
19680;DHT22;9989;48.962;9.182;2023-03-14T12:09:25;12.10;99.90
19680;DHT22;9989;48.962;9.182;2023-03-14T12:12:00;12.10;99.90
19680;DHT22;9989;48.962;9.182;2023-03-14T12:14:30;12.10;99.90
19680;DHT22;9989;48.962;9.182;2023-03-14T12:17:03;12.10;99.90
19680;DHT22;9989;48.962;9.182;2023-03-14T13:06:11;11.20;99.90
19680;DHT22;9989;48.962;9.182;2023-03-14T13:08:39;11.40;99.90
19680;DHT22;9989;48.962;9.182;2023-03-14T13:11:21;11.80;99.90
19680;DHT22;9989;48.962;9.182;2023-03-14T13:13:52;12.80;99.90
19680;DHT22;9989;48.962;9.182;2023-03-14T13:16:22;14.10;99.90
19680;DHT22;9989;48.962;9.182;2023-03-14T13:18:49;14.70;99.90
19680;DHT22;9989;48.962;9.182;2023-03-14T13:21:17;14.90;95.80
19680;DHT22;9989;48.962;9.182;2023-03-14T13:24:24;14.80;93.30
19680;DHT22;9989;48.962;9.182;2023-03-14T13:26:53;15.10;91.50
19680;DHT22;9989;48.962;9.182;2023-03-14T13:31:54;15.80;81.40
19680;DHT22;9989;48.962;9.182;2023-03-14T13:34:25;15.70;78.80
19680;DHT22;9989;48.962;9.182;2023-03-14T13:36:54;15.10;78.20
19680;DHT22;9989;48.962;9.182;2023-03-14T13:39:24;14.30;79.20
19680;DHT22;9989;48.962;9.182;2023-03-14T13:41:52;13.50;80.30
19680;DHT22;9989;48.962;9.182;2023-03-14T13:44:38;13.20;82.10
19680;DHT22;9989;48.962;9.182;2023-03-14T13:47:09;13.00;83.70
19680;DHT22;9989;48.962;9.182;2023-03-14T13:49:37;12.80;81.50
19680;DHT22;9989;48.962;9.182;2023-03-14T13:52:04;12.60;83.20
19680;DHT22;9989;48.962;9.182;2023-03-14T13:54:46;12.40;83.50
19680;DHT22;9989;48.962;9.182;2023-03-14T13:57:11;12.20;83.30
19680;DHT22;9989;48.962;9.182;2023-03-14T13:59:37;12.10;83.10
19680;DHT22;9989;48.962;9.182;2023-03-14T14:02:23;12.10;84.30
19680;DHT22;9989;48.962;9.182;2023-03-14T14:04:50;12.10;86.70
19680;DHT22;9989;48.962;9.182;2023-03-14T14:07:16;11.90;83.30
19680;DHT22;9989;48.962;9.182;2023-03-14T14:09:48;11.80;81.70
19680;DHT22;9989;48.962;9.182;2023-03-14T14:15:09;11.60;80.10
19680;DHT22;9989;48.962;9.182;2023-03-14T14:20:08;11.50;79.70
19680;DHT22;9989;48.962;9.182;2023-03-14T14:22:38;11.50;81.00
19680;DHT22;9989;48.962;9.182;2023-03-14T14:25:04;11.30;81.40
19680;DHT22;9989;48.962;9.182;2023-03-14T14:27:39;11.20;82.10
19680;DHT22;9989;48.962;9.182;2023-03-14T14:32:45;11.10;81.70
19680;DHT22;9989;48.962;9.182;2023-03-14T14:35:30;11.20;81.10
19680;DHT22;9989;48.962;9.182;2023-03-14T14:37:56;11.20;80.90
19680;DHT22;9989;48.962;9.182;2023-03-14T14:40:28;11.20;80.20
19680;DHT22;9989;48.962;9.182;2023-03-14T14:42:54;11.20;80.60
19680;DHT22;9989;48.962;9.182;2023-03-14T14:45:23;11.20;80.30
19680;DHT22;9989;48.962;9.182;2023-03-14T14:47:53;11.10;80.30
19680;DHT22;9989;48.962;9.182;2023-03-14T14:50:31;11.10;81.60
19680;DHT22;9989;48.962;9.182;2023-03-14T14:52:59;10.90;80.70
19680;DHT22;9989;48.962;9.182;2023-03-14T14:55:31;10.90;81.40
19680;DHT22;9989;48.962;9.182;2023-03-14T14:57:58;11.00;81.50
19680;DHT22;9989;48.962;9.182;2023-03-14T15:00:39;11.00;81.80
19680;DHT22;9989;48.962;9.182;2023-03-14T15:03:12;11.10;79.80
19680;DHT22;9989;48.962;9.182;2023-03-14T15:05:39;11.50;80.00
19680;DHT22;9989;48.962;9.182;2023-03-14T15:08:10;12.60;77.30
19680;DHT22;9989;48.962;9.182;2023-03-14T15:10:36;14.00;72.60
19680;DHT22;9989;48.962;9.182;2023-03-14T15:13:01;15.10;69.80
19680;DHT22;9989;48.962;9.182;2023-03-14T15:15:27;16.20;65.90
19680;DHT22;9989;48.962;9.182;2023-03-14T15:17:52;17.20;61.90
19680;DHT22;9989;48.962;9.182;2023-03-14T15:20:18;17.30;59.60
19680;DHT22;9989;48.962;9.182;2023-03-14T15:22:45;17.00;59.80
19680;DHT22;9989;48.962;9.182;2023-03-14T15:25:12;16.60;60.30
19680;DHT22;9989;48.962;9.182;2023-03-14T15:27:38;16.40;61.20
19680;DHT22;9989;48.962;9.182;2023-03-14T15:30:13;16.90;60.20
19680;DHT22;9989;48.962;9.182;2023-03-14T15:32:39;17.50;59.30
19680;DHT22;9989;48.962;9.182;2023-03-14T15:35:06;17.90;58.30
19680;DHT22;9989;48.962;9.182;2023-03-14T15:37:33;18.20;56.90
19680;DHT22;9989;48.962;9.182;2023-03-14T15:39:58;17.90;57.70
19680;DHT22;9989;48.962;9.182;2023-03-14T15:42:24;17.10;57.60
19680;DHT22;9989;48.962;9.182;2023-03-14T15:44:51;16.40;58.60
19680;DHT22;9989;48.962;9.182;2023-03-14T15:47:16;16.20;59.20
19680;DHT22;9989;48.962;9.182;2023-03-14T15:49:43;16.20;60.00
19680;DHT22;9989;48.962;9.182;2023-03-14T15:52:09;16.60;59.50
19680;DHT22;9989;48.962;9.182;2023-03-14T15:54:35;17.20;58.70
19680;DHT22;9989;48.962;9.182;2023-03-14T15:57:00;17.60;57.60
19680;DHT22;9989;48.962;9.182;2023-03-14T15:59:26;17.80;57.90
19680;DHT22;9989;48.962;9.182;2023-03-14T16:01:52;17.60;57.10
19680;DHT22;9989;48.962;9.182;2023-03-14T16:04:17;17.30;57.90
19680;DHT22;9989;48.962;9.182;2023-03-14T16:06:44;16.80;59.00
19680;DHT22;9989;48.962;9.182;2023-03-14T16:09:13;16.40;59.70
19680;DHT22;9989;48.962;9.182;2023-03-14T16:11:39;15.90;61.60
19680;DHT22;9989;48.962;9.182;2023-03-14T16:14:05;15.60;62.10
19680;DHT22;9989;48.962;9.182;2023-03-14T16:16:31;15.50;62.40
19680;DHT22;9989;48.962;9.182;2023-03-14T16:18:56;15.60;62.60
19680;DHT22;9989;48.962;9.182;2023-03-14T16:21:22;15.50;62.60
19680;DHT22;9989;48.962;9.182;2023-03-14T16:23:48;14.80;64.00
19680;DHT22;9989;48.962;9.182;2023-03-14T16:26:16;14.10;66.50
19680;DHT22;9989;48.962;9.182;2023-03-14T16:28:43;13.40;68.20
19680;DHT22;9989;48.962;9.182;2023-03-14T16:31:12;12.90;70.30
19680;DHT22;9989;48.962;9.182;2023-03-14T16:33:39;12.40;72.50
19680;DHT22;9989;48.962;9.182;2023-03-14T16:36:06;12.00;74.00
19680;DHT22;9989;48.962;9.182;2023-03-14T16:38:37;11.70;75.90
19680;DHT22;9989;48.962;9.182;2023-03-14T16:43:38;11.20;78.30
19680;DHT22;9989;48.962;9.182;2023-03-14T16:46:06;11.10;79.80
19680;DHT22;9989;48.962;9.182;2023-03-14T16:48:32;10.90;80.80
19680;DHT22;9989;48.962;9.182;2023-03-14T16:50:58;10.80;81.80
19680;DHT22;9989;48.962;9.182;2023-03-14T16:53:25;10.70;82.90
19680;DHT22;9989;48.962;9.182;2023-03-14T16:55:53;10.60;84.30
19680;DHT22;9989;48.962;9.182;2023-03-14T16:58:19;10.50;85.70
19680;DHT22;9989;48.962;9.182;2023-03-14T17:00:46;10.40;87.20
19680;DHT22;9989;48.962;9.182;2023-03-14T17:03:12;10.30;88.10
19680;DHT22;9989;48.962;9.182;2023-03-14T17:05:37;10.20;88.80
19680;DHT22;9989;48.962;9.182;2023-03-14T17:08:08;10.20;89.30
19680;DHT22;9989;48.962;9.182;2023-03-14T17:10:34;10.10;90.40
19680;DHT22;9989;48.962;9.182;2023-03-14T17:12:59;9.90;91.50
19680;DHT22;9989;48.962;9.182;2023-03-14T17:15:25;9.70;92.40
19680;DHT22;9989;48.962;9.182;2023-03-14T17:17:50;9.60;92.90
19680;DHT22;9989;48.962;9.182;2023-03-14T17:20:16;9.50;93.70
19680;DHT22;9989;48.962;9.182;2023-03-14T17:22:42;9.30;94.30
19680;DHT22;9989;48.962;9.182;2023-03-14T17:25:07;9.20;95.10